Time;durP1;ratioP1;P1;durP2;ratioP2;P2;SDS_P1;SDS_P2;PMS_P1;PMS_P2;Temp;Humidity;BMP_temperature;BMP_pressure;BME280_temperature;BME280_humidity;BME280_pressure;Samples;Min_cycle;Max_cycle;Signal;HPM_P1;HPM_P2
2023/01/21 00:00:40;;;;;;;7.43;3.62;;;4.60;67.10;;;;;;2303890;54;21524;-71
2023/01/21 00:03:06;;;;;;;6.43;3.70;;;4.60;67.10;;;;;;2310986;54;21584;-75
2023/01/21 00:05:33;;;;;;;6.55;3.28;;;4.60;67.10;;;;;;2304302;54;21373;-71
2023/01/21 00:07:59;;;;;;;6.90;3.53;;;4.60;67.10;;;;;;2404006;53;21024;-74
2023/01/21 00:10:28;;;;;;;7.05;3.40;;;4.60;67.20;;;;;;2304581;54;21431;-74
2023/01/21 00:12:54;;;;;;;6.10;3.17;;;4.60;67.20;;;;;;2303888;54;21226;-74
2023/01/21 00:15:20;;;;;;;5.95;3.40;;;4.60;67.20;;;;;;2304208;54;21456;-72
2023/01/21 00:17:47;;;;;;;6.25;3.17;;;4.50;67.10;;;;;;2308920;54;21020;-74
2023/01/21 00:20:13;;;;;;;5.57;3.20;;;4.50;67.10;;;;;;2304037;54;21608;-71
2023/01/21 00:22:39;;;;;;;5.87;3.00;;;4.50;67.00;;;;;;2450865;53;20964;-72
2023/01/21 00:25:06;;;;;;;5.55;3.08;;;4.50;67.00;;;;;;2303976;54;20956;-72
2023/01/21 00:27:32;;;;;;;5.12;2.92;;;4.50;67.00;;;;;;2304141;54;20976;-74
2023/01/21 00:29:59;;;;;;;5.50;3.20;;;4.50;67.00;;;;;;2304471;54;21580;-72
2023/01/21 00:32:25;;;;;;;5.53;2.75;;;4.50;67.00;;;;;;2307197;54;21036;-71
2023/01/21 00:34:51;;;;;;;5.40;3.25;;;4.50;67.00;;;;;;2423772;53;21339;-72
2023/01/21 00:37:17;;;;;;;5.50;3.00;;;4.50;67.00;;;;;;2304459;54;21012;-71
2023/01/21 00:39:44;;;;;;;5.97;3.15;;;4.40;67.00;;;;;;2304684;54;21448;-74
2023/01/21 00:42:10;;;;;;;6.50;4.12;;;4.40;67.00;;;;;;2304227;54;21615;-71
2023/01/21 00:44:37;;;;;;;7.82;4.25;;;4.40;67.00;;;;;;2307850;54;21528;-72
2023/01/21 00:47:03;;;;;;;7.53;3.92;;;4.40;67.00;;;;;;2304276;54;20965;-71
2023/01/21 00:49:30;;;;;;;6.45;3.55;;;4.40;67.00;;;;;;2304624;54;20985;-72
2023/01/21 00:51:56;;;;;;;6.95;3.30;;;4.40;67.00;;;;;;2305097;54;20989;-72
2023/01/21 00:54:22;;;;;;;5.55;3.03;;;4.40;67.10;;;;;;2388150;53;21194;-73
2023/01/21 00:56:49;;;;;;;5.87;3.42;;;4.30;67.00;;;;;;2304669;53;21509;-70
2023/01/21 00:59:15;;;;;;;9.13;4.72;;;4.40;67.20;;;;;;2425074;53;21861;-74
2023/01/21 01:01:41;;;;;;;7.40;3.80;;;4.30;67.10;;;;;;2311171;54;20937;-73
2023/01/21 01:04:09;;;;;;;7.25;3.83;;;4.30;67.10;;;;;;2304450;54;21519;-72
2023/01/21 01:06:36;;;;;;;7.35;3.83;;;4.30;67.10;;;;;;2335792;54;21529;-72
2023/01/21 01:09:02;;;;;;;7.70;3.40;;;4.30;67.10;;;;;;2345409;53;21277;-72
2023/01/21 01:11:29;;;;;;;7.00;3.15;;;4.30;67.20;;;;;;2352271;54;21076;-73
2023/01/21 01:13:55;;;;;;;7.95;3.28;;;4.30;67.20;;;;;;2406787;53;21072;-74
2023/01/21 01:16:21;;;;;;;6.28;3.10;;;4.30;67.30;;;;;;2304319;54;21036;-72
2023/01/21 01:18:48;;;;;;;4.97;2.60;;;4.30;67.30;;;;;;2311873;54;20988;-73
2023/01/21 01:21:16;;;;;;;5.45;2.90;;;4.30;67.30;;;;;;2304055;54;20957;-73
2023/01/21 01:23:42;;;;;;;5.32;2.85;;;4.30;67.30;;;;;;2304057;54;21427;-74
2023/01/21 01:26:10;;;;;;;6.00;3.08;;;4.30;67.30;;;;;;2320546;54;21012;-70
2023/01/21 01:28:36;;;;;;;5.47;2.90;;;4.30;67.30;;;;;;2490969;53;21015;-72
2023/01/21 01:31:06;;;;;;;5.55;2.97;;;4.30;67.30;;;;;;2330295;53;21016;-73
2023/01/21 01:33:33;;;;;;;4.68;2.60;;;4.30;67.20;;;;;;2511923;54;21022;-72
2023/01/21 01:36:06;;;;;;;5.22;2.72;;;4.30;67.30;;;;;;2357756;53;21457;-70
2023/01/21 01:38:33;;;;;;;5.35;2.60;;;4.30;67.30;;;;;;2304031;54;20921;-71
2023/01/21 01:40:59;;;;;;;6.60;2.92;;;4.30;67.40;;;;;;2304497;54;21493;-71
2023/01/21 01:43:47;;;;;;;5.78;2.92;;;4.30;67.40;;;;;;2304197;54;21747;-71
2023/01/21 01:46:14;;;;;;;4.50;2.30;;;4.30;67.40;;;;;;2368199;53;21502;-72
2023/01/21 01:48:40;;;;;;;7.85;2.78;;;4.30;67.40;;;;;;2303860;54;21115;-73
2023/01/21 01:51:06;;;;;;;5.93;2.80;;;4.40;67.60;;;;;;2304136;54;21513;-71
2023/01/21 01:53:33;;;;;;;4.75;2.20;;;4.30;67.50;;;;;;2304669;54;21534;-74
2023/01/21 01:55:59;;;;;;;4.70;2.42;;;4.40;67.60;;;;;;2412139;53;20985;-71
2023/01/21 01:58:25;;;;;;;4.40;2.45;;;4.40;67.50;;;;;;2338770;53;21488;-72
2023/01/21 02:00:51;;;;;;;3.90;2.08;;;4.30;67.40;;;;;;2304808;54;21517;-74
2023/01/21 02:06:03;;;;;;;3.92;2.10;;;4.40;67.40;;;;;;2304876;54;21620;-74
2023/01/21 02:08:31;;;;;;;4.55;2.10;;;4.30;67.30;;;;;;2303834;54;21439;-72
2023/01/21 02:10:57;;;;;;;4.05;1.92;;;4.30;67.30;;;;;;2304587;54;21668;-70
2023/01/21 02:13:26;;;;;;;4.18;1.77;;;4.30;67.20;;;;;;2310867;54;21260;-73
2023/01/21 02:20:02;;;;;;;4.37;1.55;;;4.30;67.20;;;;;;2503011;53;21058;-72
2023/01/21 02:23:50;;;;;;;;;;;4.30;66.20;;;;;;2309743;54;20961;-74
2023/01/21 02:29:39;;;;;;;3.08;1.20;;;4.30;66.00;;;;;;2304764;54;20466;-71
2023/01/21 02:33:04;;;;;;;2.62;1.10;;;4.20;65.80;;;;;;2452271;53;22009;-70
2023/01/21 02:35:38;;;;;;;3.03;1.30;;;4.20;66.30;;;;;;2304537;54;20992;-72
2023/01/21 02:41:16;;;;;;;3.20;1.30;;;4.10;66.80;;;;;;2304677;53;21449;-72
2023/01/21 02:43:52;;;;;;;2.25;1.02;;;4.10;65.70;;;;;;2304515;54;21355;-73
2023/01/21 02:46:31;;;;;;;3.33;1.10;;;4.10;66.70;;;;;;2319980;53;21431;-74
2023/01/21 02:49:07;;;;;;;2.62;1.10;;;4.00;66.50;;;;;;2330545;53;20961;-75
2023/01/21 02:51:34;;;;;;;3.20;1.00;;;4.00;66.40;;;;;;2542352;53;21469;-74
2023/01/21 02:54:12;;;;;;;2.58;1.20;;;3.90;66.60;;;;;;2303801;54;21465;-75
2023/01/21 02:56:38;;;;;;;3.92;1.20;;;3.90;66.40;;;;;;2304043;54;20997;-74
2023/01/21 02:59:04;;;;;;;3.00;1.20;;;3.90;66.60;;;;;;2303869;54;20941;-73
2023/01/21 03:01:47;;;;;;;2.97;1.10;;;3.90;66.60;;;;;;2402225;53;21400;-72
2023/01/21 03:09:38;;;;;;;2.20;0.95;;;3.90;66.60;;;;;;2398752;53;21457;-71
2023/01/21 03:18:44;;;;;;;2.12;0.80;;;3.70;65.30;;;;;;2313366;54;21244;-71
2023/01/21 03:21:14;;;;;;;3.83;0.95;;;3.60;65.60;;;;;;2281570;55;21098;-71
2023/01/21 03:23:42;;;;;;;1.70;0.75;;;3.60;66.30;;;;;;2542550;53;21393;-72
2023/01/21 03:26:09;;;;;;;2.10;0.80;;;3.50;66.40;;;;;;2304522;54;20973;-73
2023/01/21 03:28:38;;;;;;;2.45;0.98;;;3.50;66.30;;;;;;2302937;54;20996;-72
2023/01/21 03:31:06;;;;;;;3.62;1.20;;;3.40;66.20;;;;;;2353472;53;20972;-73
2023/01/21 03:33:34;;;;;;;2.53;1.02;;;3.40;66.30;;;;;;2303184;54;21371;-71
2023/01/21 03:36:01;;;;;;;2.17;1.05;;;3.40;66.30;;;;;;2303366;54;20945;-74
2023/01/21 03:38:30;;;;;;;2.72;1.00;;;3.30;66.30;;;;;;2304880;54;21367;-71
2023/01/21 03:41:16;;;;;;;2.80;0.90;;;3.30;66.30;;;;;;2303478;54;21572;-73
2023/01/21 03:43:42;;;;;;;2.97;1.10;;;3.20;66.20;;;;;;2304183;54;21367;-71
2023/01/21 03:46:24;;;;;;;2.22;1.10;;;3.20;66.30;;;;;;2304642;54;20960;-73
2023/01/21 03:49:03;;;;;;;3.17;1.00;;;3.20;66.20;;;;;;2459971;53;21519;-72
2023/01/21 03:51:35;;;;;;;3.30;1.05;;;3.20;66.20;;;;;;2319574;54;21445;-72
2023/01/21 03:54:01;;;;;;;6.10;2.70;;;3.20;66.30;;;;;;2317128;53;21351;-73
2023/01/21 03:56:27;;;;;;;4.00;1.70;;;3.10;66.30;;;;;;2305326;54;20996;-71
2023/01/21 03:58:54;;;;;;;3.25;1.15;;;3.10;66.30;;;;;;2305966;54;22142;-73
2023/01/21 04:01:20;;;;;;;3.33;1.08;;;3.10;66.40;;;;;;2375344;53;21442;-74
2023/01/21 04:03:47;;;;;;;2.50;1.00;;;3.10;66.40;;;;;;2304506;54;21458;-73
2023/01/21 04:06:17;;;;;;;1.87;0.80;;;3.00;66.30;;;;;;2311075;53;20963;-73
2023/01/21 04:08:43;;;;;;;2.37;0.90;;;3.00;66.30;;;;;;2304497;54;21446;-72
2023/01/21 04:11:09;;;;;;;3.10;0.80;;;3.00;66.40;;;;;;2305254;54;21518;-74
2023/01/21 04:13:37;;;;;;;2.78;1.00;;;3.00;66.40;;;;;;2508953;53;21467;-74
2023/01/21 04:16:03;;;;;;;4.45;0.95;;;2.90;66.40;;;;;;2364726;53;21455;-73
2023/01/21 04:18:29;;;;;;;3.40;1.45;;;2.90;66.50;;;;;;2320834;53;20964;-74
2023/01/21 04:20:56;;;;;;;2.22;0.80;;;2.90;66.50;;;;;;2304551;54;21084;-73
2023/01/21 04:23:22;;;;;;;1.80;0.70;;;2.90;66.50;;;;;;2304854;54;21465;-73
2023/01/21 04:25:49;;;;;;;2.33;0.98;;;2.90;66.40;;;;;;2304642;54;21473;-73
2023/01/21 04:28:15;;;;;;;3.10;0.70;;;2.90;66.40;;;;;;2304563;54;21445;-72
2023/01/21 04:30:41;;;;;;;2.67;0.88;;;2.80;66.30;;;;;;2372135;53;21464;-72
2023/01/21 04:33:08;;;;;;;1.83;0.77;;;2.80;66.30;;;;;;2305005;54;21056;-73
2023/01/21 04:35:35;;;;;;;1.77;0.70;;;2.80;66.30;;;;;;2304572;54;21025;-71
2023/01/21 04:38:01;;;;;;;2.30;0.95;;;2.80;66.30;;;;;;2304753;54;21415;-73
2023/01/21 04:40:39;;;;;;;2.80;1.02;;;2.70;66.30;;;;;;2304683;54;20953;-74
2023/01/21 04:43:05;;;;;;;2.58;1.20;;;2.70;66.20;;;;;;2324952;53;21544;-73
2023/01/21 04:45:32;;;;;;;3.33;1.40;;;2.70;66.30;;;;;;2312039;53;21009;-71
2023/01/21 04:47:58;;;;;;;2.80;1.12;;;2.70;66.40;;;;;;2304437;54;21016;-72
2023/01/21 04:50:24;;;;;;;2.25;0.93;;;2.70;66.40;;;;;;2336474;53;21012;-72
2023/01/21 04:52:50;;;;;;;2.00;0.90;;;2.70;66.30;;;;;;2363262;53;21503;-73
2023/01/21 04:55:17;;;;;;;1.98;0.98;;;2.60;66.20;;;;;;2311431;54;20941;-72
2023/01/21 04:57:43;;;;;;;3.50;0.80;;;2.60;66.10;;;;;;2304037;54;21561;-73
2023/01/21 05:00:10;;;;;;;2.05;0.90;;;2.60;66.10;;;;;;2311285;54;21763;-73
2023/01/21 05:02:36;;;;;;;2.37;0.80;;;2.50;66.10;;;;;;2543539;53;21382;-73
2023/01/21 05:05:02;;;;;;;2.17;0.88;;;2.50;66.20;;;;;;2304755;54;21048;-73
2023/01/21 05:07:29;;;;;;;2.15;0.90;;;2.50;66.30;;;;;;2304529;54;20965;-74
2023/01/21 05:09:55;;;;;;;1.95;0.75;;;2.50;66.30;;;;;;2304672;54;20941;-72
2023/01/21 05:12:21;;;;;;;2.05;0.77;;;2.50;66.40;;;;;;2305214;54;21867;-72
2023/01/21 05:14:47;;;;;;;2.45;0.90;;;2.40;66.20;;;;;;2374023;53;21529;-73
2023/01/21 05:17:14;;;;;;;1.77;0.70;;;2.40;66.20;;;;;;2491399;53;20964;-74
2023/01/21 05:19:40;;;;;;;2.62;1.20;;;2.40;66.10;;;;;;2304519;54;21506;-72
2023/01/21 05:22:06;;;;;;;1.35;0.60;;;2.40;66.10;;;;;;2317108;53;21168;-72
2023/01/21 05:24:32;;;;;;;2.05;0.88;;;2.30;66.00;;;;;;2318263;53;21481;-72
2023/01/21 05:26:59;;;;;;;3.22;0.90;;;2.30;66.00;;;;;;2304945;54;21088;-74
2023/01/21 05:29:25;;;;;;;2.83;0.90;;;2.30;66.00;;;;;;2386382;53;21317;-73
2023/01/21 05:31:52;;;;;;;1.87;0.70;;;2.20;65.90;;;;;;2304558;54;20964;-72
2023/01/21 05:34:18;;;;;;;2.65;0.82;;;2.20;66.00;;;;;;2305326;54;21497;-72
2023/01/21 05:36:44;;;;;;;2.28;0.90;;;2.20;66.10;;;;;;2304215;54;21525;-72
2023/01/21 05:39:10;;;;;;;1.85;0.62;;;2.20;66.20;;;;;;2304858;54;21024;-73
2023/01/21 05:41:37;;;;;;;1.67;0.65;;;2.20;66.30;;;;;;2361159;53;21486;-70
2023/01/21 05:44:03;;;;;;;3.87;1.05;;;2.20;66.30;;;;;;2448885;53;21079;-71
2023/01/21 05:46:29;;;;;;;3.15;0.95;;;2.10;66.20;;;;;;2304699;54;21485;-72
2023/01/21 05:48:55;;;;;;;1.83;0.80;;;2.10;66.20;;;;;;2303876;54;20985;-74
2023/01/21 05:51:22;;;;;;;2.03;0.80;;;2.10;66.10;;;;;;2305252;54;20949;-73
2023/01/21 05:53:48;;;;;;;2.25;0.80;;;2.10;66.10;;;;;;2305087;54;20984;-71
2023/01/21 05:56:14;;;;;;;2.55;1.20;;;2.10;66.10;;;;;;2365373;53;21315;-73
2023/01/21 05:58:41;;;;;;;3.53;1.10;;;2.00;66.00;;;;;;2304441;54;21063;-71
2023/01/21 06:01:07;;;;;;;3.25;1.40;;;2.00;65.90;;;;;;2305077;54;21532;-71
2023/01/21 06:03:34;;;;;;;2.83;1.23;;;2.00;66.00;;;;;;2366111;53;20960;-72
2023/01/21 06:06:00;;;;;;;3.08;1.00;;;1.90;66.00;;;;;;2305525;54;20968;-73
2023/01/21 06:08:26;;;;;;;2.37;1.00;;;1.90;66.10;;;;;;2537156;53;20997;-72
2023/01/21 06:10:56;;;;;;;2.95;1.33;;;1.90;66.10;;;;;;2304500;54;20944;-73
2023/01/21 06:13:22;;;;;;;3.00;1.30;;;1.90;66.00;;;;;;2323863;54;21555;-71
2023/01/21 06:15:48;;;;;;;2.92;1.23;;;1.90;66.00;;;;;;2304852;54;20969;-74
2023/01/21 06:18:14;;;;;;;3.15;1.20;;;1.80;65.80;;;;;;2438230;53;21473;-72
2023/01/21 06:20:41;;;;;;;3.05;1.40;;;1.70;65.60;;;;;;2304753;54;21580;-73
2023/01/21 06:23:07;;;;;;;3.58;1.60;;;1.80;65.70;;;;;;2304747;54;21458;-73
2023/01/21 06:25:33;;;;;;;3.75;1.60;;;1.70;65.60;;;;;;2304789;54;20953;-73
2023/01/21 06:28:02;;;;;;;3.55;1.70;;;1.70;65.70;;;;;;2304777;54;20957;-73
2023/01/21 06:30:29;;;;;;;4.87;1.67;;;1.70;65.80;;;;;;2399856;53;20996;-73
2023/01/21 06:32:55;;;;;;;2.92;1.37;;;1.50;65.70;;;;;;2392702;53;21328;-73
2023/01/21 06:35:21;;;;;;;3.58;1.67;;;1.60;65.80;;;;;;2427562;53;20948;-73
2023/01/21 06:37:47;;;;;;;4.25;1.45;;;1.60;65.80;;;;;;2304372;54;21503;-73
2023/01/21 06:40:14;;;;;;;4.80;2.22;;;1.60;65.80;;;;;;2304872;54;21044;-72
2023/01/21 06:42:40;;;;;;;4.82;2.15;;;1.50;65.70;;;;;;2304753;54;21001;-72
2023/01/21 06:45:07;;;;;;;3.78;1.80;;;1.50;65.70;;;;;;2311693;54;20984;-73
2023/01/21 06:47:34;;;;;;;3.97;1.98;;;1.50;65.80;;;;;;2346506;53;20972;-72
2023/01/21 06:50:00;;;;;;;4.62;2.15;;;1.50;65.70;;;;;;2305115;54;21540;-74
2023/01/21 06:52:26;;;;;;;4.43;2.10;;;1.40;65.70;;;;;;2342259;53;21451;-71
2023/01/21 06:54:52;;;;;;;5.55;2.55;;;1.40;65.70;;;;;;2304570;54;20945;-72
2023/01/21 06:57:19;;;;;;;5.75;2.80;;;1.40;65.70;;;;;;2437358;53;21454;-70
2023/01/21 06:59:45;;;;;;;5.40;2.47;;;1.30;65.60;;;;;;2304539;54;21079;-71
2023/01/21 07:02:11;;;;;;;5.28;2.45;;;1.30;65.60;;;;;;2305238;54;21023;-73
2023/01/21 07:04:38;;;;;;;4.25;2.03;;;1.30;65.60;;;;;;2310897;53;20968;-73
2023/01/21 07:07:04;;;;;;;4.95;2.40;;;1.30;65.60;;;;;;2362641;53;21510;-71
2023/01/21 07:09:30;;;;;;;5.55;2.55;;;1.20;65.40;;;;;;2304765;54;20997;-72
2023/01/21 07:11:57;;;;;;;4.82;2.50;;;1.20;65.50;;;;;;2304706;54;20976;-72
2023/01/21 07:14:23;;;;;;;3.90;2.10;;;1.20;65.50;;;;;;2457530;53;21780;-71
2023/01/21 07:16:49;;;;;;;6.18;3.12;;;1.10;65.50;;;;;;2304509;54;20940;-73
2023/01/21 07:19:16;;;;;;;7.00;3.25;;;1.10;65.50;;;;;;2371614;53;21565;-70
2023/01/21 07:21:42;;;;;;;5.07;2.78;;;1.10;65.50;;;;;;2318935;54;21970;-71
2023/01/21 07:24:09;;;;;;;5.35;2.50;;;1.10;65.60;;;;;;2304854;54;21126;-71
2023/01/21 07:26:36;;;;;;;5.68;2.92;;;1.00;65.60;;;;;;2480115;53;21026;-71
2023/01/21 07:29:04;;;;;;;6.22;3.30;;;1.00;65.60;;;;;;2315008;53;20956;-71
2023/01/21 07:31:37;;;;;;;5.80;3.20;;;1.00;65.60;;;;;;2536774;53;20969;-72
2023/01/21 07:34:04;;;;;;;7.15;3.17;;;1.00;65.60;;;;;;2304737;54;20948;-72
2023/01/21 07:36:30;;;;;;;5.65;2.95;;;1.00;65.70;;;;;;2315956;54;21007;-71
2023/01/21 07:38:56;;;;;;;6.12;3.15;;;0.90;65.60;;;;;;2448123;53;21455;-72
2023/01/21 07:41:23;;;;;;;5.57;2.83;;;0.90;65.60;;;;;;2353299;53;20977;-72
2023/01/21 07:43:49;;;;;;;8.57;3.58;;;0.90;65.70;;;;;;2304569;54;20975;-71
2023/01/21 07:46:19;;;;;;;8.57;4.55;;;0.90;65.70;;;;;;2304420;54;21019;-71
2023/01/21 07:48:50;;;;;;;10.32;4.68;;;0.90;65.80;;;;;;2304151;54;21492;-73
2023/01/21 07:51:19;;;;;;;8.40;4.20;;;0.80;65.70;;;;;;2304803;54;21810;-72
2023/01/21 07:53:46;;;;;;;7.95;4.00;;;0.80;65.70;;;;;;2304349;54;21562;-72
2023/01/21 07:56:12;;;;;;;8.43;4.37;;;0.80;65.80;;;;;;2304718;54;20989;-72
2023/01/21 07:58:38;;;;;;;9.70;4.50;;;0.80;65.90;;;;;;2535242;53;21907;-71
2023/01/21 08:01:06;;;;;;;10.43;5.05;;;0.80;65.90;;;;;;2304119;54;20973;-71
2023/01/21 08:03:33;;;;;;;7.87;4.22;;;0.80;65.90;;;;;;2330203;53;20942;-70
2023/01/21 08:06:00;;;;;;;7.28;4.40;;;0.80;65.90;;;;;;2304047;54;21000;-73
2023/01/21 08:08:26;;;;;;;5.47;3.08;;;0.70;65.90;;;;;;2423699;53;21048;-72
2023/01/21 08:10:53;;;;;;;7.70;3.78;;;0.70;66.00;;;;;;2303941;54;21887;-71
2023/01/21 08:13:19;;;;;;;5.03;2.80;;;0.70;66.00;;;;;;2309827;54;20988;-72
2023/01/21 08:15:52;;;;;;;7.37;3.97;;;0.70;66.10;;;;;;2304155;54;20984;-71
2023/01/21 08:18:19;;;;;;;8.93;3.87;;;0.70;66.20;;;;;;2345603;53;20940;-72
2023/01/21 08:20:45;;;;;;;10.43;4.72;;;0.70;66.30;;;;;;2304331;54;21475;-72
2023/01/21 08:23:11;;;;;;;10.98;5.37;;;0.70;66.40;;;;;;2304627;54;20996;-71
2023/01/21 08:25:37;;;;;;;11.07;5.07;;;0.70;66.50;;;;;;2304130;54;21497;-74
2023/01/21 08:28:04;;;;;;;9.63;4.68;;;0.70;66.60;;;;;;2304352;54;21488;-73
2023/01/21 08:30:30;;;;;;;8.45;4.87;;;0.80;66.90;;;;;;2304022;54;20933;-72
2023/01/21 08:32:56;;;;;;;9.02;4.12;;;0.80;66.90;;;;;;2304536;54;21463;-73
2023/01/21 08:35:22;;;;;;;8.10;4.30;;;0.80;67.00;;;;;;2338552;53;21442;-73
2023/01/21 08:37:49;;;;;;;9.98;4.30;;;0.80;67.00;;;;;;2310174;54;20948;-73
2023/01/21 08:40:15;;;;;;;7.55;4.05;;;0.80;67.10;;;;;;2304081;54;20988;-70
2023/01/21 08:42:42;;;;;;;8.73;4.25;;;0.90;67.30;;;;;;2330276;53;20960;-73
2023/01/21 08:45:09;;;;;;;8.25;4.65;;;0.90;67.50;;;;;;2304093;54;21032;-74
2023/01/21 08:47:35;;;;;;;11.05;5.30;;;0.90;67.60;;;;;;2313232;54;21503;-71
2023/01/21 08:50:02;;;;;;;11.10;6.22;;;1.00;67.80;;;;;;2304085;54;20969;-70
2023/01/21 08:52:28;;;;;;;12.43;6.43;;;1.00;68.00;;;;;;2350419;53;21540;-74
2023/01/21 08:54:54;;;;;;;14.20;7.32;;;1.10;68.20;;;;;;2310296;53;21484;-71
2023/01/21 08:57:21;;;;;;;17.37;9.30;;;1.10;68.40;;;;;;2304843;54;21520;-73
2023/01/21 08:59:47;;;;;;;20.12;9.35;;;1.20;68.60;;;;;;2467740;53;21517;-74
2023/01/21 09:02:13;;;;;;;13.25;6.82;;;1.20;68.70;;;;;;2321309;54;20952;-71
2023/01/21 09:04:39;;;;;;;11.07;6.85;;;1.30;68.80;;;;;;2320860;54;21509;-73
2023/01/21 09:07:06;;;;;;;8.75;5.30;;;1.40;68.90;;;;;;2304174;54;21212;-73
2023/01/21 09:09:32;;;;;;;8.13;4.20;;;1.40;69.00;;;;;;2304324;54;21420;-71
2023/01/21 09:11:58;;;;;;;7.05;3.75;;;1.50;69.10;;;;;;2304414;54;20960;-72
2023/01/21 09:14:25;;;;;;;9.32;4.22;;;1.60;69.20;;;;;;2304917;54;21542;-74
2023/01/21 09:16:54;;;;;;;7.60;4.15;;;1.60;69.30;;;;;;2304066;54;21450;-70
2023/01/21 09:19:21;;;;;;;8.82;4.80;;;1.70;69.40;;;;;;2539144;53;21496;-70
2023/01/21 09:21:47;;;;;;;7.50;4.05;;;1.80;69.40;;;;;;2305846;53;20981;-71
2023/01/21 09:24:14;;;;;;;9.07;5.15;;;1.80;69.50;;;;;;2304818;54;21025;-71
2023/01/21 09:26:43;;;;;;;10.85;6.25;;;1.90;69.60;;;;;;2304382;54;21304;-72
2023/01/21 09:29:09;;;;;;;12.25;6.43;;;2.00;69.70;;;;;;2304692;54;21459;-73
2023/01/21 09:31:36;;;;;;;11.40;6.75;;;2.00;69.70;;;;;;2304100;54;20972;-74
2023/01/21 09:34:03;;;;;;;12.05;6.65;;;2.10;69.80;;;;;;2315347;54;21060;-75
2023/01/21 09:36:30;;;;;;;10.98;6.15;;;2.20;69.70;;;;;;2304639;54;20960;-73
2023/01/21 09:38:56;;;;;;;11.60;6.40;;;2.20;69.60;;;;;;2312646;53;20948;-71
2023/01/21 09:41:38;;;;;;;10.40;6.53;;;2.30;69.60;;;;;;2304924;54;21489;-71
2023/01/21 09:44:50;;;;;;;12.07;6.87;;;2.40;69.60;;;;;;2304552;54;20977;-71
2023/01/21 09:48:19;;;;;;;10.32;6.20;;;2.40;69.10;;;;;;2345034;53;21578;-72
2023/01/21 09:51:18;;;;;;;10.32;6.47;;;2.50;68.90;;;;;;2363753;53;21021;-72
2023/01/21 09:53:48;;;;;;;11.98;7.25;;;2.60;69.30;;;;;;2479467;53;21068;-73
2023/01/21 09:56:41;;;;;;;11.32;6.47;;;2.60;69.50;;;;;;2304533;54;21005;-75
2023/01/21 09:59:18;;;;;;;12.00;7.30;;;2.70;69.20;;;;;;2324848;53;21452;-74
2023/01/21 10:01:46;;;;;;;12.98;7.30;;;2.70;69.40;;;;;;2307572;53;20977;-73
2023/01/21 10:12:25;;;;;;;12.90;7.37;;;2.80;69.50;;;;;;2306059;54;21539;-72
2023/01/21 10:21:48;;;;;;;10.70;5.90;;;3.00;68.90;;;;;;2304155;54;21028;-72
2023/01/21 10:24:36;;;;;;;27.00;13.32;;;3.10;69.80;;;;;;2333112;54;21336;-73
2023/01/21 10:27:02;;;;;;;29.45;14.93;;;3.30;70.10;;;;;;2453279;53;21546;-75
2023/01/21 10:29:28;;;;;;;30.40;15.65;;;3.40;70.10;;;;;;2324884;53;20940;-72
2023/01/21 10:32:06;;;;;;;28.23;15.32;;;3.40;70.00;;;;;;2381191;53;21600;-71
2023/01/21 10:34:38;;;;;;;29.63;15.23;;;3.50;69.80;;;;;;2451000;53;21456;-72
2023/01/21 10:37:11;;;;;;;27.23;15.27;;;3.50;69.70;;;;;;2304920;54;20996;-72
2023/01/21 10:39:43;;;;;;;;;;;3.50;69.60;;;;;;2295372;55;20960;-71
2023/01/21 10:42:16;;;;;;;30.25;15.00;;;3.60;69.20;;;;;;2304866;54;20399;-71
2023/01/21 10:45:25;;;;;;;24.92;13.38;;;3.60;69.40;;;;;;2446132;53;21003;-70
2023/01/21 10:48:00;;;;;;;29.02;14.27;;;3.60;69.10;;;;;;2448153;53;20968;-74
2023/01/21 10:56:02;;;;;;;25.77;13.70;;;3.60;69.30;;;;;;2304854;54;20984;-73
2023/01/21 10:58:49;;;;;;;19.27;9.05;;;3.70;68.70;;;;;;2304644;54;20949;-75
2023/01/21 11:01:22;;;;;;;21.48;10.60;;;3.80;69.60;;;;;;2304365;54;21542;-75
2023/01/21 11:03:52;;;;;;;21.50;12.43;;;3.80;69.90;;;;;;2320947;53;20974;-75
2023/01/21 11:06:19;;;;;;;21.62;11.45;;;3.90;70.00;;;;;;2313197;53;21534;-75
2023/01/21 11:08:48;;;;;;;22.73;11.63;;;3.90;69.80;;;;;;2314361;53;21586;-71
2023/01/21 11:11:17;;;;;;;24.10;12.55;;;4.00;69.80;;;;;;2318723;53;21545;-73
2023/01/21 11:13:43;;;;;;;20.58;11.23;;;4.00;69.80;;;;;;2303412;54;21378;-72
2023/01/21 11:16:09;;;;;;;19.17;10.73;;;4.10;69.80;;;;;;2304036;54;21438;-73
2023/01/21 11:18:38;;;;;;;24.27;11.20;;;4.10;69.80;;;;;;2359018;53;21489;-72
2023/01/21 11:21:23;;;;;;;23.50;11.93;;;4.20;69.90;;;;;;2383963;53;21806;-73
2023/01/21 11:24:03;;;;;;;20.92;11.35;;;4.30;69.70;;;;;;2377961;53;21600;-73
2023/01/21 11:26:31;;;;;;;20.73;10.43;;;4.40;70.00;;;;;;2304417;54;21030;-74
2023/01/21 11:29:58;;;;;;;20.98;11.12;;;4.40;69.90;;;;;;2304138;54;21864;-73
2023/01/21 11:32:26;;;;;;;23.40;11.98;;;4.40;68.80;;;;;;2312652;54;21429;-74
2023/01/21 11:35:09;;;;;;;22.27;12.68;;;4.40;69.40;;;;;;2303684;54;20961;-75
2023/01/21 11:37:36;;;;;;;20.33;11.18;;;4.40;68.70;;;;;;2304777;54;21459;-74
2023/01/21 11:40:24;;;;;;;18.87;10.57;;;4.40;69.00;;;;;;2304416;54;21428;-74
2023/01/21 11:42:53;;;;;;;18.85;10.05;;;4.50;68.90;;;;;;2304317;54;21080;-72
2023/01/21 11:45:30;;;;;;;20.37;10.25;;;4.50;69.20;;;;;;2548177;53;20937;-75
2023/01/21 11:47:57;;;;;;;19.90;10.65;;;4.50;69.00;;;;;;2369132;53;20980;-76
2023/01/21 11:50:34;;;;;;;21.15;10.30;;;4.50;69.30;;;;;;2304864;54;20954;-73
2023/01/21 11:53:13;;;;;;;22.30;11.70;;;4.50;69.00;;;;;;2303940;54;21151;-73
2023/01/21 11:55:52;;;;;;;19.48;10.05;;;4.50;68.90;;;;;;2304280;54;20960;-72
2023/01/21 11:58:29;;;;;;;18.02;9.40;;;4.50;68.90;;;;;;2304850;54;21071;-73
2023/01/21 12:01:00;;;;;;;20.83;9.20;;;4.50;68.90;;;;;;2303839;54;21051;-74
2023/01/21 12:10:25;;;;;;;19.30;9.48;;;4.60;69.20;;;;;;2304902;54;20965;-74
2023/01/21 12:12:58;;;;;;;20.37;10.32;;;4.70;69.10;;;;;;2304686;54;21558;-75
2023/01/21 12:15:57;;;;;;;23.25;11.65;;;4.70;69.20;;;;;;2371310;53;21460;-73
2023/01/21 12:21:03;;;;;;;21.70;10.60;;;4.70;68.80;;;;;;2304602;54;21552;-74
2023/01/21 12:23:54;;;;;;;17.17;8.80;;;4.70;68.10;;;;;;2304617;54;20964;-72
2023/01/21 12:26:46;;;;;;;135.63;43.28;;;4.70;68.30;;;;;;2315264;54;21583;-71
2023/01/21 12:32:24;;;;;;;52.05;21.25;;;4.70;68.60;;;;;;2320390;55;20984;-72
2023/01/21 12:34:54;;;;;;;26.95;12.85;;;4.70;68.70;;;;;;2304084;54;21383;-72
2023/01/21 12:39:59;;;;;;;20.85;10.20;;;4.70;69.00;;;;;;2304423;54;21594;-74
2023/01/21 12:42:28;;;;;;;19.95;9.73;;;4.80;69.10;;;;;;2311994;54;21500;-73
2023/01/21 12:45:11;;;;;;;19.55;10.38;;;4.80;69.10;;;;;;2303454;54;21095;-75
2023/01/21 12:49:03;;;;;;;20.08;10.75;;;4.80;69.10;;;;;;2304491;54;21532;-72
2023/01/21 12:51:38;;;;;;;20.73;10.55;;;4.90;69.10;;;;;;2304403;54;21507;-74
2023/01/21 12:54:24;;;;;;;18.95;9.77;;;4.90;68.90;;;;;;2490992;53;21037;-70
2023/01/21 12:57:02;;;;;;;19.33;10.02;;;4.90;68.50;;;;;;2316799;53;20945;-72
2023/01/21 12:59:42;;;;;;;16.35;9.15;;;4.90;68.50;;;;;;2307136;54;20957;-74
2023/01/21 13:04:53;;;;;;;14.65;8.38;;;4.90;68.50;;;;;;2378988;53;20940;-72
2023/01/21 13:08:16;;;;;;;15.68;8.00;;;5.00;68.00;;;;;;2425849;53;22054;-74
2023/01/21 13:10:48;;;;;;;16.23;8.30;;;5.00;68.70;;;;;;2353839;53;21127;-72
2023/01/21 13:13:29;;;;;;;15.60;9.13;;;5.00;68.60;;;;;;2568459;53;20993;-73
2023/01/21 13:15:57;;;;;;;18.35;8.48;;;5.00;68.50;;;;;;2420345;53;21559;-74
2023/01/21 13:18:32;;;;;;;16.70;8.88;;;5.00;68.40;;;;;;2304632;54;21427;-70
2023/01/21 13:21:04;;;;;;;16.30;8.48;;;5.10;68.30;;;;;;2433044;53;20981;-71
2023/01/21 13:23:45;;;;;;;;;;;5.10;68.50;;;;;;2366777;53;21631;-74
2023/01/21 13:26:17;;;;;;;15.68;7.65;;;5.10;67.40;;;;;;2304199;54;20127;-74
2023/01/21 13:29:04;;;;;;;18.08;9.50;;;5.10;68.40;;;;;;2303952;54;21347;-76
2023/01/21 13:31:50;;;;;;;15.85;8.68;;;5.10;67.90;;;;;;2395576;53;21198;-72
2023/01/21 13:34:32;;;;;;;14.70;8.50;;;5.10;67.60;;;;;;2304995;54;20964;-74
2023/01/21 13:37:13;;;;;;;14.63;8.20;;;5.10;67.70;;;;;;2529520;52;22005;-72
2023/01/21 13:41:36;;;;;;;16.83;9.02;;;5.10;67.70;;;;;;2303472;53;21434;-72
2023/01/21 13:45:01;;;;;;;17.00;8.82;;;5.10;67.50;;;;;;2304574;54;21115;-71
2023/01/21 13:53:12;;;;;;;21.70;10.18;;;5.10;67.00;;;;;;2373899;53;20956;-74
2023/01/21 13:58:42;;;;;;;17.95;9.10;;;5.00;66.60;;;;;;2304802;54;20984;-72
2023/01/21 14:01:14;;;;;;;17.15;9.05;;;4.90;66.50;;;;;;2470340;53;22041;-70
2023/01/21 14:04:05;;;;;;;21.77;10.40;;;4.80;67.30;;;;;;2305069;53;20952;-72
2023/01/21 14:06:53;;;;;;;24.30;11.70;;;4.80;67.10;;;;;;2305834;53;20981;-74
2023/01/21 14:09:34;;;;;;;22.33;12.13;;;4.70;66.80;;;;;;2304784;53;20968;-73
2023/01/21 14:12:14;;;;;;;22.65;11.88;;;4.70;67.00;;;;;;2325420;53;21006;-75
2023/01/21 14:15:14;;;;;;;20.95;10.75;;;4.60;66.90;;;;;;2308274;53;21008;-71
2023/01/21 14:18:24;;;;;;;20.08;11.38;;;4.60;66.70;;;;;;2305063;54;21064;-74
2023/01/21 14:21:57;;;;;;;23.92;12.18;;;4.50;67.00;;;;;;2304193;54;21578;-71
2023/01/21 14:24:54;;;;;;;24.30;11.12;;;4.50;66.80;;;;;;2304620;54;21925;-71
2023/01/21 14:31:20;;;;;;;21.25;10.57;;;4.40;66.90;;;;;;2304619;54;21500;-73
2023/01/21 14:34:45;;;;;;;23.38;12.48;;;4.40;66.60;;;;;;2304083;54;21475;-73